createdAt,value
2022-08-22T00:01:11.442Z,99.90
2022-08-22T00:04:22.945Z,99.90
2022-08-22T00:07:39.774Z,99.90
2022-08-22T00:11:12.444Z,99.90
2022-08-22T00:14:19.966Z,99.90
2022-08-22T00:17:29.707Z,99.90
2022-08-22T00:20:48.627Z,99.90
2022-08-22T00:24:17.657Z,99.90
2022-08-22T00:27:26.872Z,99.90
2022-08-22T00:30:30.465Z,99.90
2022-08-22T00:34:03.569Z,99.90
2022-08-22T00:37:22.372Z,99.90
2022-08-22T00:40:38.953Z,99.90
2022-08-22T00:44:04.819Z,99.90
2022-08-22T00:47:18.478Z,99.90
2022-08-22T00:50:26.495Z,99.90
2022-08-22T00:53:57.271Z,99.90
2022-08-22T00:57:08.072Z,99.90
2022-08-22T01:00:16.278Z,99.90
2022-08-22T01:03:47.288Z,99.90
2022-08-22T01:07:13.760Z,99.90
2022-08-22T01:10:37.756Z,99.90
2022-08-22T01:13:54.970Z,99.90
2022-08-22T01:17:05.841Z,99.90
2022-08-22T01:20:41.858Z,99.90
2022-08-22T01:24:05.369Z,99.90
2022-08-22T01:27:28.200Z,99.90
2022-08-22T01:31:07.442Z,99.90
2022-08-22T01:34:36.335Z,99.90
2022-08-22T01:38:22.548Z,99.90
2022-08-22T01:41:41.412Z,99.90
2022-08-22T01:45:11.263Z,99.90
2022-08-22T01:48:21.559Z,99.90
2022-08-22T01:51:24.787Z,99.90
2022-08-22T01:54:35.922Z,99.90
2022-08-22T01:58:00.780Z,99.90
2022-08-22T02:01:33.986Z,99.90
2022-08-22T02:04:48.395Z,99.90
2022-08-22T02:07:50.245Z,99.90
2022-08-22T02:11:08.919Z,99.90
2022-08-22T02:14:36.601Z,99.90
2022-08-22T02:18:22.898Z,99.90
2022-08-22T02:21:39.964Z,99.90
2022-08-22T02:24:51.083Z,99.90
2022-08-22T02:28:20.752Z,99.90
2022-08-22T02:31:40.369Z,99.90
2022-08-22T02:35:01.468Z,99.90
2022-08-22T02:38:40.989Z,99.90
2022-08-22T02:42:07.127Z,99.90
2022-08-22T02:45:41.917Z,99.90
2022-08-22T02:49:07.612Z,99.90
2022-08-22T02:52:12.481Z,99.90
2022-08-22T02:55:21.353Z,99.90
2022-08-22T02:58:59.302Z,99.90
2022-08-22T03:02:37.716Z,99.90
2022-08-22T03:05:39.966Z,99.90
2022-08-22T03:09:07.644Z,99.90
2022-08-22T03:12:21.700Z,99.90
2022-08-22T03:15:49.320Z,99.90
2022-08-22T03:19:06.420Z,99.90
2022-08-22T03:22:36.250Z,99.90
2022-08-22T03:26:08.791Z,99.90
2022-08-22T03:29:18.600Z,99.90
2022-08-22T03:32:24.000Z,99.90
2022-08-22T03:35:44.301Z,99.90
2022-08-22T03:39:19.176Z,99.90
2022-08-22T03:42:33.056Z,99.90
2022-08-22T03:45:41.001Z,99.90
2022-08-22T03:48:45.683Z,99.90
2022-08-22T03:51:53.595Z,99.90
2022-08-22T03:55:14.251Z,99.90
2022-08-22T03:58:53.366Z,99.90
2022-08-22T04:02:42.915Z,99.90
2022-08-22T04:05:58.270Z,99.90
2022-08-22T04:09:18.318Z,99.90
2022-08-22T04:12:29.205Z,99.90
2022-08-22T04:15:31.850Z,99.90
2022-08-22T04:19:12.375Z,99.90
2022-08-22T04:22:17.088Z,99.90
2022-08-22T04:25:25.696Z,99.90
2022-08-22T04:28:37.894Z,99.90
2022-08-22T04:31:51.425Z,99.90
2022-08-22T04:35:02.392Z,99.90
2022-08-22T04:38:40.461Z,99.90
2022-08-22T04:42:00.730Z,99.90
2022-08-22T04:45:17.076Z,99.90
2022-08-22T04:48:34.514Z,99.90
2022-08-22T04:51:48.909Z,99.90
2022-08-22T04:55:20.955Z,99.90
2022-08-22T04:58:34.642Z,99.90
2022-08-22T05:01:46.794Z,99.90
2022-08-22T05:05:04.334Z,99.90
2022-08-22T05:08:11.833Z,99.90
2022-08-22T05:11:19.170Z,99.90
2022-08-22T05:15:19.019Z,99.90
2022-08-22T05:18:32.556Z,99.90
2022-08-22T05:21:38.728Z,99.90
2022-08-22T05:24:46.484Z,99.90
2022-08-22T05:27:53.159Z,99.90
2022-08-22T05:30:58.844Z,99.90
2022-08-22T05:34:11.397Z,99.90
2022-08-22T05:37:24.759Z,99.90
2022-08-22T05:40:29.174Z,99.90
2022-08-22T05:43:36.650Z,99.90
2022-08-22T05:46:44.534Z,99.90
2022-08-22T05:50:23.842Z,99.90
2022-08-22T05:53:34.903Z,99.90
2022-08-22T05:56:42.306Z,99.90
2022-08-22T05:59:46.724Z,99.90
2022-08-22T06:03:15.292Z,99.90
2022-08-22T06:06:19.454Z,99.90
2022-08-22T06:09:39.495Z,99.90
2022-08-22T06:13:16.213Z,99.90
2022-08-22T06:16:47.590Z,99.90
2022-08-22T06:19:53.644Z,99.90
2022-08-22T06:23:00.381Z,99.90
2022-08-22T06:26:03.943Z,99.90
2022-08-22T06:29:08.614Z,99.90
2022-08-22T06:32:44.374Z,99.90
2022-08-22T06:36:21.222Z,99.90
2022-08-22T06:39:36.687Z,99.90
2022-08-22T06:42:43.445Z,99.90
2022-08-22T06:45:45.750Z,99.90
2022-08-22T06:48:48.771Z,99.90
2022-08-22T06:51:50.842Z,99.90
2022-08-22T06:55:00.479Z,99.90
2022-08-22T06:58:11.896Z,99.90
2022-08-22T07:01:27.301Z,99.90
2022-08-22T07:04:30.372Z,99.90
2022-08-22T07:07:32.220Z,99.90
2022-08-22T07:10:34.602Z,99.90
2022-08-22T07:13:39.403Z,99.90
2022-08-22T07:17:16.313Z,99.90
2022-08-22T07:20:25.834Z,99.90
2022-08-22T07:23:36.125Z,99.90
2022-08-22T07:27:05.925Z,99.90
2022-08-22T07:30:14.785Z,99.90
2022-08-22T07:33:44.086Z,99.90
2022-08-22T07:37:01.604Z,99.90
2022-08-22T07:40:20.387Z,99.90
2022-08-22T07:43:48.685Z,99.90
2022-08-22T07:47:02.362Z,99.90
2022-08-22T07:50:08.489Z,99.90
2022-08-22T07:53:28.488Z,99.90
2022-08-22T07:56:52.242Z,99.90
2022-08-22T07:59:58.172Z,99.90
2022-08-22T08:03:05.800Z,99.90
2022-08-22T08:06:09.486Z,99.90
2022-08-22T08:09:17.465Z,99.90
2022-08-22T08:12:26.163Z,99.90
2022-08-22T08:15:28.115Z,99.90
2022-08-22T08:18:34.127Z,99.90
2022-08-22T08:21:53.530Z,99.90
2022-08-22T08:25:00.828Z,99.90
2022-08-22T08:28:22.871Z,99.90
2022-08-22T08:31:32.046Z,99.90
2022-08-22T08:34:35.427Z,99.90
2022-08-22T08:38:05.061Z,99.90
2022-08-22T08:41:28.201Z,99.90
2022-08-22T08:44:46.060Z,99.90
2022-08-22T08:48:21.100Z,99.90
2022-08-22T08:51:43.233Z,99.90
2022-08-22T08:55:19.650Z,99.90
2022-08-22T08:58:37.994Z,99.90
2022-08-22T09:02:05.476Z,99.90
2022-08-22T09:05:25.437Z,99.90
2022-08-22T09:09:00.144Z,99.90
2022-08-22T09:12:08.575Z,99.60
2022-08-22T09:15:58.757Z,99.90
2022-08-22T09:19:47.422Z,99.90
2022-08-22T09:23:33.883Z,99.90
2022-08-22T09:26:40.393Z,99.90
2022-08-22T09:30:04.702Z,99.60
2022-08-22T09:33:15.235Z,99.90
2022-08-22T09:36:54.434Z,99.60
2022-08-22T09:40:06.763Z,99.10
2022-08-22T09:43:33.750Z,99.40
2022-08-22T09:46:50.139Z,99.30
2022-08-22T09:50:24.680Z,99.30
2022-08-22T09:54:03.534Z,99.40
2022-08-22T09:57:29.716Z,98.90
2022-08-22T10:00:38.429Z,99.40
2022-08-22T10:03:46.168Z,98.90
2022-08-22T10:07:08.542Z,99.10
2022-08-22T10:10:22.439Z,99.40
2022-08-22T10:13:42.025Z,98.30
2022-08-22T10:17:05.372Z,98.40
2022-08-22T10:20:27.696Z,98.10
2022-08-22T10:23:45.956Z,97.10
2022-08-22T10:26:54.587Z,97.40
2022-08-22T10:30:10.811Z,96.80
2022-08-22T10:33:35.791Z,97.40
2022-08-22T10:37:02.906Z,97.30
2022-08-22T10:40:13.378Z,96.00
2022-08-22T10:43:28.875Z,96.90
2022-08-22T10:46:36.286Z,96.50
2022-08-22T10:49:51.236Z,96.40
2022-08-22T10:53:29.375Z,97.40
2022-08-22T10:56:37.260Z,97.60
2022-08-22T11:00:22.532Z,95.70
2022-08-22T11:04:02.303Z,96.50
2022-08-22T11:07:28.994Z,95.70
2022-08-22T11:10:52.210Z,95.00
2022-08-22T11:13:57.117Z,95.40
2022-08-22T11:17:31.185Z,94.10
2022-08-22T11:20:58.497Z,94.70
2022-08-22T11:24:34.928Z,94.10
2022-08-22T11:27:51.986Z,94.20
2022-08-22T11:31:13.651Z,94.30
2022-08-22T11:35:11.219Z,95.50
2022-08-22T11:38:32.625Z,94.80
2022-08-22T11:41:45.487Z,95.00
2022-08-22T11:45:05.997Z,94.50
2022-08-22T11:48:25.197Z,93.70
2022-08-22T11:51:51.863Z,94.30
2022-08-22T11:55:50.376Z,94.40
2022-08-22T11:59:12.600Z,94.80
2022-08-22T12:02:27.038Z,94.50
2022-08-22T12:05:44.450Z,94.90
2022-08-22T12:08:51.498Z,94.90
2022-08-22T12:12:12.768Z,95.00
2022-08-22T12:15:37.641Z,95.50
2022-08-22T12:19:06.332Z,95.10
2022-08-22T12:22:34.948Z,95.60
2022-08-22T12:25:45.483Z,94.50
2022-08-22T12:29:33.585Z,95.20
2022-08-22T12:33:01.643Z,93.80
2022-08-22T12:36:40.948Z,94.60
2022-08-22T12:39:55.270Z,94.30
2022-08-22T12:43:54.601Z,94.40
2022-08-22T12:47:14.819Z,94.30
2022-08-22T12:50:58.023Z,94.20
2022-08-22T12:54:35.342Z,94.00
2022-08-22T12:57:58.986Z,94.00
2022-08-22T13:01:11.356Z,94.30
2022-08-22T13:04:32.754Z,94.70
2022-08-22T13:07:38.423Z,95.00
2022-08-22T13:10:48.003Z,94.00
2022-08-22T13:13:56.586Z,95.00
2022-08-22T13:17:23.897Z,95.30
2022-08-22T13:20:37.621Z,95.00
2022-08-22T13:23:51.710Z,94.60
2022-08-22T13:27:00.658Z,93.90
2022-08-22T13:30:12.384Z,93.30
2022-08-22T13:33:23.292Z,94.20
2022-08-22T13:36:26.938Z,93.50
2022-08-22T13:39:42.790Z,92.60
2022-08-22T13:42:54.205Z,92.50
2022-08-22T13:46:01.889Z,93.10
2022-08-22T13:49:10.060Z,93.00
2022-08-22T13:52:30.299Z,93.40
2022-08-22T13:55:44.748Z,93.50
2022-08-22T13:58:57.244Z,92.20
2022-08-22T14:02:17.805Z,92.20
2022-08-22T14:05:31.461Z,91.50
2022-08-22T14:08:36.625Z,92.70
2022-08-22T14:11:50.068Z,92.40
2022-08-22T14:15:01.303Z,92.30
2022-08-22T14:18:15.407Z,93.00
2022-08-22T14:21:40.487Z,92.30
2022-08-22T14:24:55.625Z,91.70
2022-08-22T14:28:03.014Z,91.40
2022-08-22T14:31:14.414Z,92.80
2022-08-22T14:34:17.410Z,92.20
2022-08-22T14:37:35.244Z,91.50
2022-08-22T14:40:42.048Z,91.40
2022-08-22T14:44:05.389Z,91.90
2022-08-22T14:47:32.448Z,92.60
2022-08-22T14:50:37.274Z,92.40
2022-08-22T14:53:40.557Z,91.60
2022-08-22T14:56:44.772Z,91.50
2022-08-22T14:59:53.062Z,92.10
2022-08-22T15:03:24.566Z,92.10
2022-08-22T15:06:50.923Z,92.80
2022-08-22T15:10:03.299Z,93.20
2022-08-22T15:13:08.527Z,93.30
2022-08-22T15:16:22.199Z,93.60
2022-08-22T15:19:42.933Z,93.90
2022-08-22T15:22:47.258Z,93.80
2022-08-22T15:26:06.956Z,93.70
2022-08-22T15:29:23.232Z,94.40
2022-08-22T15:32:31.953Z,95.40
2022-08-22T15:35:38.986Z,95.10
2022-08-22T15:38:48.077Z,96.40
2022-08-22T15:41:51.065Z,95.10
2022-08-22T15:44:54.973Z,95.00
2022-08-22T15:47:58.462Z,94.90
2022-08-22T15:51:01.870Z,94.80
2022-08-22T15:54:24.837Z,95.40
2022-08-22T15:57:35.370Z,95.80
2022-08-22T16:01:04.778Z,96.40
2022-08-22T16:04:43.792Z,97.00
2022-08-22T16:07:51.520Z,97.40
2022-08-22T16:11:20.515Z,97.80
2022-08-22T16:14:34.900Z,97.80
2022-08-22T16:17:45.403Z,98.00
2022-08-22T16:20:54.313Z,98.30
2022-08-22T16:23:59.181Z,98.60
2022-08-22T16:27:18.974Z,99.00
2022-08-22T16:30:33.630Z,98.80
2022-08-22T16:33:38.991Z,98.70
2022-08-22T16:36:46.721Z,99.30
2022-08-22T16:40:18.487Z,99.00
2022-08-22T16:43:20.909Z,99.30
2022-08-22T16:46:33.210Z,99.40
2022-08-22T16:49:55.808Z,99.40
2022-08-22T16:53:03.638Z,99.70
2022-08-22T16:56:22.541Z,99.60
2022-08-22T16:59:49.691Z,99.90
2022-08-22T17:03:06.370Z,99.70
2022-08-22T17:06:41.815Z,99.70
2022-08-22T17:10:11.608Z,99.80
2022-08-22T17:13:26.300Z,99.70
2022-08-22T17:16:37.524Z,99.80
2022-08-22T17:19:46.728Z,99.90
2022-08-22T17:23:08.633Z,99.80
2022-08-22T17:26:34.711Z,99.90
2022-08-22T17:29:53.727Z,99.90
2022-08-22T17:33:01.473Z,99.90
2022-08-22T17:36:26.218Z,99.90
2022-08-22T17:39:56.043Z,99.90
2022-08-22T17:43:01.178Z,99.90
2022-08-22T17:46:29.859Z,99.90
2022-08-22T17:50:00.768Z,99.90
2022-08-22T17:53:09.102Z,99.90
2022-08-22T17:56:18.991Z,99.90
2022-08-22T17:59:31.256Z,99.90
2022-08-22T18:02:55.328Z,99.90
2022-08-22T18:06:06.006Z,99.90
2022-08-22T18:09:19.753Z,99.90
2022-08-22T18:12:34.377Z,99.90
2022-08-22T18:15:42.745Z,99.90
2022-08-22T18:19:22.390Z,99.90
2022-08-22T18:22:33.528Z,99.90
2022-08-22T18:25:43.582Z,99.90
2022-08-22T18:29:00.331Z,99.90
2022-08-22T18:32:33.101Z,99.90
2022-08-22T18:35:54.543Z,99.90
2022-08-22T18:38:59.623Z,99.90
2022-08-22T18:42:18.360Z,99.90
2022-08-22T18:45:46.052Z,99.90
2022-08-22T18:49:13.674Z,99.90
2022-08-22T18:52:10.078Z,99.90
2022-08-22T18:55:20.872Z,99.90
2022-08-22T18:58:44.478Z,99.90
2022-08-22T19:02:04.970Z,99.90
2022-08-22T19:05:34.174Z,99.90
2022-08-22T19:08:52.982Z,99.90
2022-08-22T19:12:32.108Z,99.90
2022-08-22T19:15:55.685Z,99.90
2022-08-22T19:19:17.401Z,99.90
2022-08-22T19:22:19.661Z,99.90
2022-08-22T19:25:28.095Z,99.90
2022-08-22T19:28:36.942Z,99.90
2022-08-22T19:31:41.237Z,99.90
2022-08-22T19:34:47.841Z,99.90
2022-08-22T19:38:10.631Z,99.90
2022-08-22T19:41:41.547Z,99.90
2022-08-22T19:44:46.462Z,99.90
2022-08-22T19:48:01.010Z,99.90
2022-08-22T19:51:14.082Z,99.90
2022-08-22T19:54:23.114Z,99.90
2022-08-22T19:57:40.118Z,99.90
2022-08-22T20:01:12.663Z,99.90
2022-08-22T20:05:01.933Z,99.90
2022-08-22T20:08:21.757Z,99.90
2022-08-22T20:11:51.799Z,99.90
2022-08-22T20:14:54.373Z,99.90
2022-08-22T20:18:12.250Z,99.90
2022-08-22T20:21:40.082Z,99.90
2022-08-22T20:24:56.170Z,99.90
2022-08-22T20:28:05.368Z,99.90
2022-08-22T20:31:19.159Z,99.90
2022-08-22T20:34:26.726Z,99.90
2022-08-22T20:41:24.525Z,99.90
2022-08-22T20:44:34.707Z,99.90
2022-08-22T20:47:41.291Z,99.90
2022-08-22T20:50:44.393Z,99.90
2022-08-22T20:54:00.400Z,99.90
2022-08-22T20:57:14.022Z,99.90
2022-08-22T21:00:23.165Z,99.90
2022-08-22T21:03:40.970Z,99.90
2022-08-22T21:06:43.527Z,99.90
2022-08-22T21:10:21.724Z,99.90
2022-08-22T21:13:36.629Z,99.90
2022-08-22T21:16:38.509Z,99.90
2022-08-22T21:19:40.448Z,99.90
2022-08-22T21:22:42.552Z,99.90
2022-08-22T21:25:49.128Z,99.90
2022-08-22T21:29:05.267Z,99.90
2022-08-22T21:32:14.821Z,99.90
2022-08-22T21:35:30.720Z,99.90
2022-08-22T21:38:33.036Z,99.90
2022-08-22T21:41:40.361Z,99.90
2022-08-22T21:44:53.984Z,99.90
2022-08-22T21:47:56.973Z,99.90
2022-08-22T21:51:17.688Z,99.90
2022-08-22T21:54:20.841Z,99.90
2022-08-22T21:57:35.396Z,99.90
2022-08-22T22:00:48.943Z,99.90
2022-08-22T22:03:52.593Z,99.90
2022-08-22T22:06:54.606Z,99.90
2022-08-22T22:09:57.054Z,99.90
2022-08-22T22:12:59.734Z,99.90
2022-08-22T22:16:01.867Z,99.90
2022-08-22T22:19:07.756Z,99.90
2022-08-22T22:22:09.709Z,99.90
2022-08-22T22:25:40.645Z,99.80
2022-08-22T22:28:47.555Z,99.60
2022-08-22T22:31:49.567Z,99.60
2022-08-22T22:34:51.501Z,99.30
2022-08-22T22:37:54.401Z,99.00
2022-08-22T22:40:56.486Z,99.40
2022-08-22T22:43:58.438Z,99.40
2022-08-22T22:47:04.830Z,99.50
2022-08-22T22:50:07.367Z,99.90
2022-08-22T22:53:09.955Z,99.90
2022-08-22T22:56:15.843Z,99.50
2022-08-22T22:59:18.039Z,99.90
2022-08-22T23:02:26.569Z,99.80
2022-08-22T23:05:31.985Z,99.90
2022-08-22T23:08:33.892Z,99.90
2022-08-22T23:11:35.948Z,99.90
2022-08-22T23:14:37.851Z,99.70
2022-08-22T23:17:43.195Z,99.90
2022-08-22T23:20:45.094Z,99.90
2022-08-22T23:23:48.652Z,99.90
2022-08-22T23:26:50.602Z,99.90
2022-08-22T23:29:52.900Z,99.70
2022-08-22T23:32:55.739Z,99.90
2022-08-22T23:35:59.959Z,99.90
2022-08-22T23:39:02.866Z,99.90
2022-08-22T23:42:07.189Z,99.90
2022-08-22T23:45:09.511Z,99.90
2022-08-22T23:48:11.478Z,99.90
2022-08-22T23:51:15.845Z,99.90
2022-08-22T23:54:19.530Z,99.90
2022-08-22T23:57:26.564Z,99.90
